Aérodrome :
LOGIN :

S'inscrire | Disclaimer

   EN    FR    IT 

 










Légende :    VFR   VFR Marginal   IFR   IFR Intensif   IFR Très Intensif
Visi : 
Plafond : 
>= 8 km
>= 3000ft
5 à 8 km
1000 à 3000 ft
1500m à 5 km
500 à 1000 ft
800 à 1500m
200 à 500 ft
< 800m
< 200 ft
Symboles :   Orages  Brouillard  Fortes neiges  Fortes précipitations  Vent > 20 kt
SIGMETs :   Divers  Orages  Givrage  Turbulence  Onde Orograph.  Cendres Volcan.






- Altitude de l'aérodrome : 499 ft
- Code IATA : TLS


LFBO - Toulouse / Blagnac

DERNIER METAR :
  • 032000Z AUTO VRB03KT 9999 ///TCU 23/19 Q1018 TEMPO 27015G25KT 3000 BECMG SCT050 FEW070CB BKN140

METARs EXPIRÉS :
  • 031930Z AUTO 21015KT 9999 VCTS FEW039/// SCT110/// BKN150/// ///CB 23/18 Q1019 TEMPO 27015G25KT 3000
  • 031900Z AUTO 23004KT 140V280 CAVOK 26/16 Q1017 TEMPO VRB20G35KT 3000 BECMG SCT050 FEW070CB BKN140
  • 031830Z AUTO 03006KT 330V090 CAVOK 26/15 Q1018 TEMPO VRB20G35KT 3000 BECMG SCT050 FEW070CB BKN140
  • 030500Z AUTO 27005KT 230V290 CAVOK 18/15 Q1020 NOSIG
  • 031800Z AUTO 31016KT 9999 ///CB 27/16 Q1019 TEMPO VRB20G35KT 3000
  • 031730Z AUTO 30015KT 9999 ///CB 29/15 Q1019 TEMPO VRB20G35KT 3000

TAF TAF LFBO
Valide du 03 à 18h jusqu'au 05 à 00h UTC


031700Z 0318/0424 32005KT 9999 SCT050 FEW070CB BKN140
PROB40
TEMPO 0318/0322 27015G25KT TSRA
PROB30
TEMPO 0318/0321 VRB20G35KT 3000
BECMG 0322/0324 CAVOK
PROB30
TEMPO 0402/0407 BKN009
ATIS : +33 5 62 74 66 36



MET'MAP, la Météo Aéronautique d'un coup d'oeil ! - Copyright ORBIFLY Décembre 2007 - Disclaimer

ORBIFLY MET'MAP TEAM :

Programmation & Développement : Alexandra Zaïnal
Sur une idée originale de : Baudouin d'Aumeries
Soutien technique & logistique : Manuel Goepfert
Assistance : Marc-Olivier Méhu




SOURCES & CREDITS :

   NOAA